Time;durP1;ratioP1;P1;durP2;ratioP2;P2;SDS_P1;SDS_P2;PMS_P1;PMS_P2;Temp;Humidity;BMP_temperature;BMP_pressure;BME280_temperature;BME280_humidity;BME280_pressure;Samples;Min_cycle;Max_cycle;Signal;HPM_P1;HPM_P2
2024/03/07 00:00:14;;;;;;;5.60;3.70;;;22.50;58.20;;;;;;5080646;28;20928;-84
2024/03/07 00:02:41;;;;;;;4.20;3.80;;;22.50;58.30;;;;;;5080731;28;20440;-85
2024/03/07 00:05:08;;;;;;;4.03;3.63;;;22.50;58.30;;;;;;5080393;28;20440;-84
2024/03/07 00:07:38;;;;;;;4.57;3.97;;;22.50;58.30;;;;;;5079529;28;20448;-84
2024/03/07 00:10:07;;;;;;;4.23;3.80;;;22.50;58.30;;;;;;5079624;28;20508;-84
2024/03/07 00:12:35;;;;;;;4.07;3.60;;;22.40;58.30;;;;;;5078191;28;20483;-83
2024/03/07 00:15:02;;;;;;;3.93;3.50;;;22.40;58.30;;;;;;5079030;28;20441;-85
2024/03/07 00:17:28;;;;;;;4.33;3.67;;;22.40;58.30;;;;;;5059647;28;20433;-84
2024/03/07 00:19:54;;;;;;;4.60;3.93;;;22.40;58.30;;;;;;5063348;28;20439;-80
2024/03/07 00:22:22;;;;;;;4.37;3.97;;;22.40;58.30;;;;;;5074706;28;20473;-83
2024/03/07 00:24:51;;;;;;;4.77;3.37;;;22.30;58.30;;;;;;5072538;28;20437;-84
2024/03/07 00:27:17;;;;;;;5.77;4.30;;;22.40;58.40;;;;;;5068923;28;20441;-84
2024/03/07 00:29:52;;;;;;;5.80;3.30;;;22.30;58.30;;;;;;5074698;28;20445;-85
2024/03/07 00:32:19;;;;;;;3.50;3.20;;;22.30;58.30;;;;;;5078735;28;20564;-85
2024/03/07 00:34:46;;;;;;;5.30;3.83;;;22.30;58.90;;;;;;5081436;28;20436;-85
2024/03/07 00:37:13;;;;;;;7.13;3.90;;;22.40;58.40;;;;;;5081827;28;20441;-84
2024/03/07 00:39:40;;;;;;;6.80;4.37;;;22.30;58.30;;;;;;5081199;28;20436;-85
2024/03/07 00:42:08;;;;;;;4.27;3.87;;;22.30;58.30;;;;;;5081183;28;20460;-84
2024/03/07 00:44:35;;;;;;;4.70;3.57;;;22.30;58.30;;;;;;5081251;28;20479;-84
2024/03/07 00:47:03;;;;;;;4.50;3.97;;;22.30;58.30;;;;;;5081963;28;20436;-85
2024/03/07 00:49:30;;;;;;;4.43;4.00;;;22.30;58.30;;;;;;5081450;28;20460;-85
2024/03/07 00:51:57;;;;;;;4.10;3.50;;;22.30;58.30;;;;;;5076815;28;20522;-82
2024/03/07 00:54:23;;;;;;;4.90;3.50;;;22.20;58.30;;;;;;5076162;28;20490;-84
2024/03/07 00:56:50;;;;;;;4.73;4.23;;;22.20;58.30;;;;;;5076485;28;20443;-84
2024/03/07 00:59:18;;;;;;;4.97;4.10;;;22.20;58.30;;;;;;5073417;28;20447;-83
2024/03/07 01:01:45;;;;;;;3.60;3.27;;;22.20;58.30;;;;;;5073698;28;20437;-84
2024/03/07 01:04:12;;;;;;;3.90;3.50;;;22.20;58.30;;;;;;5073676;28;20946;-83
2024/03/07 01:06:40;;;;;;;4.37;3.97;;;22.20;58.30;;;;;;5073655;28;20444;-83
2024/03/07 01:09:13;;;;;;;4.63;4.13;;;22.30;58.30;;;;;;5073555;28;20945;-84
2024/03/07 01:11:40;;;;;;;5.30;4.80;;;22.30;58.30;;;;;;5073838;28;20526;-84
2024/03/07 01:14:07;;;;;;;4.20;3.73;;;22.20;58.30;;;;;;5073705;28;20437;-84
2024/03/07 01:16:35;;;;;;;4.87;3.77;;;22.30;58.30;;;;;;5074201;28;20428;-84
2024/03/07 01:19:03;;;;;;;4.93;4.17;;;22.30;58.30;;;;;;5073489;28;20452;-82
2024/03/07 01:21:30;;;;;;;4.43;3.40;;;22.30;58.30;;;;;;5073648;28;20472;-84
2024/03/07 01:23:57;;;;;;;3.70;3.17;;;22.30;58.20;;;;;;5073749;28;20501;-84
2024/03/07 01:26:24;;;;;;;4.27;3.83;;;22.30;58.20;;;;;;5073681;28;20442;-83
2024/03/07 01:28:52;;;;;;;4.50;3.30;;;22.30;58.10;;;;;;5075634;28;20439;-83
2024/03/07 01:31:19;;;;;;;4.43;4.00;;;22.30;58.10;;;;;;5077598;28;20472;-84
2024/03/07 01:33:47;;;;;;;4.93;4.27;;;22.30;58.10;;;;;;5079175;28;20444;-84
2024/03/07 01:36:13;;;;;;;5.70;3.93;;;22.30;58.10;;;;;;5074243;28;20436;-84
2024/03/07 01:38:40;;;;;;;5.00;3.80;;;22.40;58.80;;;;;;5073512;28;20444;-83
2024/03/07 01:41:07;;;;;;;4.50;4.10;;;22.30;58.10;;;;;;5073371;28;20432;-85
2024/03/07 01:43:34;;;;;;;6.50;4.10;;;22.30;58.10;;;;;;5072608;28;20471;-84
2024/03/07 01:46:01;;;;;;;4.70;4.30;;;22.30;58.00;;;;;;5072773;28;20436;-84
2024/03/07 01:48:29;;;;;;;6.33;3.83;;;22.40;58.00;;;;;;5072793;28;20529;-83
2024/03/07 01:50:58;;;;;;;5.17;3.50;;;22.40;57.90;;;;;;5072854;28;20448;-83
2024/03/07 01:53:26;;;;;;;4.23;3.83;;;22.40;57.90;;;;;;5073757;28;20440;-83
2024/03/07 01:55:53;;;;;;;6.00;4.80;;;22.40;57.80;;;;;;5076616;28;20438;-84
2024/03/07 01:58:21;;;;;;;4.30;3.90;;;22.40;57.80;;;;;;5076613;28;20791;-84
2024/03/07 02:00:48;;;;;;;3.63;3.33;;;22.40;57.80;;;;;;5076259;28;20440;-84
2024/03/07 02:03:15;;;;;;;5.13;4.13;;;22.40;57.80;;;;;;5076438;28;20463;-85
2024/03/07 02:05:42;;;;;;;3.93;3.40;;;22.40;57.70;;;;;;5076321;28;20439;-84
2024/03/07 02:08:11;;;;;;;4.33;3.90;;;22.40;57.70;;;;;;5076377;28;20432;-84
2024/03/07 02:10:38;;;;;;;4.33;3.93;;;22.40;57.70;;;;;;5076123;28;20436;-85
2024/03/07 02:13:05;;;;;;;4.60;3.97;;;22.40;57.60;;;;;;5076359;28;20484;-85
2024/03/07 02:15:32;;;;;;;4.80;4.10;;;22.40;57.60;;;;;;5076170;28;20428;-84
2024/03/07 02:17:59;;;;;;;5.27;3.87;;;22.40;57.60;;;;;;5076379;28;20472;-83
2024/03/07 02:20:28;;;;;;;5.10;4.23;;;22.50;57.60;;;;;;5075807;28;20460;-84
2024/03/07 02:22:56;;;;;;;4.40;4.00;;;22.40;57.50;;;;;;5075788;28;20471;-83
2024/03/07 02:25:22;;;;;;;4.10;3.60;;;22.40;57.50;;;;;;5076055;28;20463;-84
2024/03/07 02:27:49;;;;;;;3.80;3.40;;;22.40;57.50;;;;;;5076352;28;20432;-84
2024/03/07 02:30:18;;;;;;;5.80;4.80;;;22.40;57.50;;;;;;5076358;28;20436;-85
2024/03/07 02:32:51;;;;;;;4.93;4.43;;;22.40;57.40;;;;;;5075783;28;21051;-84
2024/03/07 02:35:19;;;;;;;5.37;3.93;;;22.40;57.40;;;;;;5076053;28;20513;-84
2024/03/07 02:37:46;;;;;;;4.23;3.70;;;22.40;57.30;;;;;;5075629;28;20424;-83
2024/03/07 02:40:17;;;;;;;4.70;4.20;;;22.40;57.40;;;;;;5075819;28;20432;-83
2024/03/07 02:42:44;;;;;;;4.40;4.00;;;22.40;57.40;;;;;;5075565;28;20433;-84
2024/03/07 02:45:12;;;;;;;4.87;3.67;;;22.40;57.30;;;;;;5075265;28;20471;-85
2024/03/07 02:47:41;;;;;;;4.70;4.20;;;22.40;57.30;;;;;;5075607;28;20444;-83
2024/03/07 02:50:09;;;;;;;7.97;4.70;;;22.40;57.30;;;;;;5075176;28;20464;-84
2024/03/07 02:52:35;;;;;;;5.83;4.17;;;22.40;57.30;;;;;;5075356;28;20488;-84
2024/03/07 02:55:04;;;;;;;5.43;4.10;;;22.40;57.30;;;;;;5075283;28;20431;-83
2024/03/07 02:57:33;;;;;;;4.27;3.73;;;22.40;57.20;;;;;;5075398;28;20445;-84
2024/03/07 03:00:00;;;;;;;4.37;3.97;;;22.40;57.20;;;;;;5075321;28;20440;-83
2024/03/07 03:02:27;;;;;;;5.93;4.37;;;22.50;57.30;;;;;;5075255;28;20436;-83
2024/03/07 03:04:54;;;;;;;4.97;4.40;;;22.40;57.20;;;;;;5074964;28;20928;-84
2024/03/07 03:07:21;;;;;;;4.53;4.10;;;22.40;57.20;;;;;;5075288;28;20436;-83
2024/03/07 03:09:48;;;;;;;4.07;3.50;;;22.40;57.20;;;;;;5075194;28;20463;-83
2024/03/07 03:12:15;;;;;;;4.20;3.80;;;22.40;57.10;;;;;;5074925;28;20483;-84
2024/03/07 03:14:44;;;;;;;4.77;3.87;;;22.40;57.20;;;;;;5075127;28;20436;-84
2024/03/07 03:17:11;;;;;;;4.53;4.00;;;22.40;57.10;;;;;;5074945;28;20437;-84
2024/03/07 03:19:37;;;;;;;4.70;3.80;;;22.40;57.10;;;;;;5074859;28;20543;-83
2024/03/07 03:22:04;;;;;;;4.30;3.77;;;22.40;57.10;;;;;;5074736;28;20447;-84
2024/03/07 03:24:31;;;;;;;4.43;4.03;;;22.40;57.00;;;;;;5074845;28;20863;-83
2024/03/07 03:26:58;;;;;;;5.83;4.53;;;22.40;57.10;;;;;;5094293;28;20436;-83
2024/03/07 03:29:28;;;;;;;3.70;3.40;;;22.40;57.00;;;;;;5097325;28;20447;-83
2024/03/07 03:31:56;;;;;;;4.93;4.17;;;22.40;57.00;;;;;;5079665;28;20480;-84
2024/03/07 03:34:23;;;;;;;4.33;3.93;;;22.40;57.10;;;;;;5074554;28;20432;-84
2024/03/07 03:36:49;;;;;;;4.60;4.10;;;22.40;57.00;;;;;;5074581;28;20500;-84
2024/03/07 03:39:16;;;;;;;4.93;4.47;;;22.40;57.00;;;;;;5074480;28;20443;-83
2024/03/07 03:41:43;;;;;;;3.90;3.40;;;22.40;57.00;;;;;;5074269;28;21005;-86
2024/03/07 03:44:11;;;;;;;4.97;4.47;;;22.40;57.00;;;;;;5074215;28;20468;-83
2024/03/07 03:46:38;;;;;;;3.90;3.50;;;22.40;57.00;;;;;;5067651;28;20440;-84
2024/03/07 03:49:07;;;;;;;4.00;3.60;;;22.40;56.90;;;;;;5074245;28;20456;-85
2024/03/07 03:51:33;;;;;;;4.33;3.93;;;22.40;57.00;;;;;;5074195;28;20447;-85
2024/03/07 03:54:00;;;;;;;4.83;3.77;;;22.40;57.00;;;;;;5074209;28;20454;-85
2024/03/07 03:56:27;;;;;;;5.10;4.60;;;22.40;56.90;;;;;;5074194;28;20436;-84
2024/03/07 03:58:54;;;;;;;4.67;4.13;;;22.40;56.90;;;;;;5074075;28;20439;-84
2024/03/07 04:01:21;;;;;;;4.60;4.13;;;22.30;56.90;;;;;;5074163;28;20435;-85
2024/03/07 04:03:47;;;;;;;5.63;3.83;;;22.30;56.80;;;;;;5074147;28;20447;-84
2024/03/07 04:06:16;;;;;;;4.67;4.10;;;22.30;56.90;;;;;;5074072;28;20435;-84
2024/03/07 04:08:43;;;;;;;4.57;4.13;;;22.30;56.80;;;;;;5073982;28;20444;-84
2024/03/07 04:11:10;;;;;;;4.37;3.67;;;22.40;56.90;;;;;;5073876;28;20439;-84
2024/03/07 04:13:37;;;;;;;4.40;3.80;;;22.40;56.90;;;;;;5073879;28;20483;-84
2024/03/07 04:16:04;;;;;;;4.90;4.40;;;22.40;56.80;;;;;;5073039;28;20448;-85
2024/03/07 04:18:32;;;;;;;4.13;3.73;;;22.30;56.80;;;;;;5074578;28;20515;-85
2024/03/07 04:20:58;;;;;;;4.07;3.53;;;22.30;56.80;;;;;;5073968;28;20510;-85
2024/03/07 04:23:27;;;;;;;4.20;3.80;;;22.40;56.80;;;;;;5073605;28;20443;-86
2024/03/07 04:25:56;;;;;;;4.00;3.60;;;22.30;56.70;;;;;;5073696;28;20476;-85
2024/03/07 04:28:23;;;;;;;4.83;3.80;;;22.40;56.80;;;;;;5074021;28;20819;-85
2024/03/07 04:30:50;;;;;;;5.00;4.10;;;22.40;56.80;;;;;;5073586;28;20490;-85
2024/03/07 04:33:17;;;;;;;4.60;4.20;;;22.40;56.80;;;;;;5073676;28;20483;-84
2024/03/07 04:35:43;;;;;;;4.53;3.70;;;22.40;56.80;;;;;;5073628;28;20443;-84
2024/03/07 04:38:14;;;;;;;4.70;3.83;;;22.30;56.70;;;;;;5073774;28;20432;-83
2024/03/07 04:40:43;;;;;;;4.93;4.20;;;22.30;56.70;;;;;;5073356;28;20440;-84
2024/03/07 04:43:10;;;;;;;7.77;3.93;;;22.30;56.70;;;;;;5073634;28;20919;-83
2024/03/07 04:45:37;;;;;;;4.50;4.00;;;22.40;56.80;;;;;;5053652;28;20511;-83
2024/03/07 04:48:04;;;;;;;5.00;4.50;;;22.30;56.70;;;;;;5053557;28;20449;-83
2024/03/07 04:50:31;;;;;;;4.17;3.80;;;22.30;56.60;;;;;;5053563;28;20462;-83
2024/03/07 04:52:58;;;;;;;4.23;3.50;;;22.40;56.70;;;;;;5053243;28;21067;-84
2024/03/07 04:55:25;;;;;;;4.20;3.80;;;22.30;56.70;;;;;;5053224;28;20460;-84
2024/03/07 04:57:53;;;;;;;4.60;3.80;;;22.40;56.60;;;;;;5053246;28;20924;-83
2024/03/07 05:00:20;;;;;;;4.90;4.40;;;22.40;56.70;;;;;;5053313;28;20443;-83
2024/03/07 05:02:47;;;;;;;4.90;4.10;;;22.40;56.70;;;;;;5053221;28;20444;-83
2024/03/07 05:05:14;;;;;;;5.50;4.80;;;22.40;56.60;;;;;;5053333;28;20440;-84
2024/03/07 05:07:41;;;;;;;4.87;4.37;;;22.40;56.60;;;;;;5053446;28;20433;-83
2024/03/07 05:10:09;;;;;;;4.47;3.73;;;22.40;56.60;;;;;;5053278;28;20434;-84
2024/03/07 05:12:36;;;;;;;4.20;3.80;;;22.40;56.60;;;;;;5053016;28;20491;-83
2024/03/07 05:15:05;;;;;;;4.40;3.73;;;22.40;56.60;;;;;;5052882;28;20453;-83
2024/03/07 05:17:34;;;;;;;4.10;3.70;;;22.40;56.50;;;;;;5053217;28;20438;-83
2024/03/07 05:20:01;;;;;;;4.57;4.17;;;22.40;56.50;;;;;;5053165;28;20468;-83
2024/03/07 05:22:30;;;;;;;4.13;3.73;;;22.40;56.50;;;;;;5053153;28;20438;-84
2024/03/07 05:24:58;;;;;;;4.40;3.87;;;22.50;56.50;;;;;;5053344;28;20445;-83
2024/03/07 05:27:25;;;;;;;4.90;4.40;;;22.40;56.40;;;;;;5053921;28;20445;-85
2024/03/07 05:29:52;;;;;;;5.00;4.37;;;22.50;56.50;;;;;;5057175;28;20433;-83
2024/03/07 05:32:25;;;;;;;3.83;3.53;;;22.40;56.40;;;;;;5048750;28;20448;-84
2024/03/07 05:34:53;;;;;;;4.40;3.90;;;22.50;56.40;;;;;;5056842;28;20426;-84
2024/03/07 05:37:21;;;;;;;4.53;4.13;;;22.50;56.50;;;;;;5039115;28;20438;-82
2024/03/07 05:39:48;;;;;;;4.40;4.00;;;22.50;56.40;;;;;;5057038;28;20782;-84
2024/03/07 05:42:15;;;;;;;4.10;3.77;;;22.50;56.40;;;;;;5056681;28;20436;-83
2024/03/07 05:44:42;;;;;;;4.00;3.60;;;22.50;56.30;;;;;;5069278;28;20819;-83
2024/03/07 05:47:09;;;;;;;4.23;3.83;;;22.60;56.30;;;;;;5076757;28;20462;-84
2024/03/07 05:49:37;;;;;;;4.23;3.67;;;22.50;56.30;;;;;;5076602;28;20457;-85
2024/03/07 05:52:05;;;;;;;4.50;4.10;;;22.50;56.30;;;;;;5076646;28;20463;-84
2024/03/07 05:54:32;;;;;;;4.13;3.70;;;22.50;56.30;;;;;;5076782;28;20484;-84
2024/03/07 05:56:59;;;;;;;4.20;3.80;;;22.60;56.40;;;;;;5076714;28;20432;-84
2024/03/07 05:59:26;;;;;;;4.10;3.70;;;22.50;56.20;;;;;;5076561;28;20489;-85
2024/03/07 06:01:54;;;;;;;3.97;3.40;;;22.60;56.30;;;;;;5076432;28;20436;-83
2024/03/07 06:04:21;;;;;;;4.20;3.80;;;22.60;56.20;;;;;;5076565;28;20539;-84
2024/03/07 06:06:49;;;;;;;4.20;3.63;;;22.60;56.20;;;;;;5077378;28;20792;-83
2024/03/07 06:09:21;;;;;;;3.87;3.47;;;22.60;56.20;;;;;;5077430;28;20433;-84
2024/03/07 06:11:49;;;;;;;4.13;3.73;;;22.60;56.20;;;;;;5077199;28;20945;-84
2024/03/07 06:14:17;;;;;;;3.73;3.43;;;22.60;56.20;;;;;;5076165;28;20840;-84
2024/03/07 06:16:44;;;;;;;4.37;3.97;;;22.60;56.20;;;;;;5076632;28;21037;-84
2024/03/07 06:19:11;;;;;;;4.83;3.80;;;22.60;56.20;;;;;;5076128;28;20547;-83
2024/03/07 06:21:40;;;;;;;4.60;4.00;;;22.60;56.20;;;;;;5076319;28;20548;-84
2024/03/07 06:24:11;;;;;;;4.90;4.50;;;22.60;56.20;;;;;;5076928;28;20835;-89
2024/03/07 06:26:46;;;;;;;5.43;4.93;;;22.60;56.00;;;;;;5076358;28;20436;-85
2024/03/07 06:29:13;;;;;;;4.70;4.30;;;22.60;55.50;;;;;;5076587;28;20855;-87
2024/03/07 06:31:39;;;;;;;4.47;4.07;;;22.50;55.40;;;;;;5081884;28;20443;-83
2024/03/07 06:34:06;;;;;;;4.80;4.40;;;22.50;55.30;;;;;;5094071;28;20988;-82
2024/03/07 06:36:33;;;;;;;4.87;4.37;;;22.50;55.40;;;;;;5092699;28;20523;-87
2024/03/07 06:39:00;;;;;;;5.40;4.10;;;22.50;55.40;;;;;;5075248;28;20923;-87
2024/03/07 06:41:28;;;;;;;4.03;3.63;;;22.50;55.40;;;;;;5075667;28;20447;-87
2024/03/07 06:43:55;;;;;;;4.73;4.27;;;22.50;55.50;;;;;;5075579;28;20886;-81
2024/03/07 06:46:23;;;;;;;4.90;4.37;;;22.50;55.40;;;;;;5067971;28;20434;-86
2024/03/07 06:48:51;;;;;;;4.80;4.30;;;22.50;55.40;;;;;;5055876;28;20515;-88
2024/03/07 06:51:18;;;;;;;4.43;4.03;;;22.50;55.40;;;;;;5055691;28;20468;-88
2024/03/07 06:53:45;;;;;;;3.90;3.60;;;22.50;55.50;;;;;;5055413;28;20504;-88
2024/03/07 06:56:12;;;;;;;6.00;4.43;;;22.50;55.40;;;;;;5055419;28;20437;-88
2024/03/07 06:58:40;;;;;;;4.40;3.90;;;22.50;55.50;;;;;;5055619;28;20784;-84
2024/03/07 07:01:10;;;;;;;4.67;3.80;;;22.50;55.50;;;;;;5055348;28;20525;-90
2024/03/07 07:03:37;;;;;;;5.00;4.50;;;22.50;55.40;;;;;;5055530;28;20433;-84
2024/03/07 07:06:05;;;;;;;4.30;3.90;;;22.50;55.40;;;;;;5055291;28;20483;-89
2024/03/07 07:08:32;;;;;;;3.80;3.50;;;22.50;55.50;;;;;;5055473;28;20798;-81
2024/03/07 07:10:59;;;;;;;5.17;4.67;;;22.50;55.70;;;;;;5054968;28;20792;-85
2024/03/07 07:13:26;;;;;;;4.20;3.80;;;22.50;55.40;;;;;;5054933;28;20507;-84
2024/03/07 07:15:54;;;;;;;4.50;4.03;;;22.50;55.80;;;;;;5055156;28;20447;-84
2024/03/07 07:18:23;;;;;;;4.17;3.77;;;22.60;55.90;;;;;;5057810;28;20434;-83
2024/03/07 07:20:51;;;;;;;5.83;5.00;;;22.60;55.90;;;;;;5058229;28;20433;-84
2024/03/07 07:23:18;;;;;;;5.10;4.30;;;22.60;55.90;;;;;;5060887;28;20444;-81
2024/03/07 07:25:46;;;;;;;4.47;4.00;;;22.60;55.90;;;;;;5055919;28;20470;-83
2024/03/07 07:28:13;;;;;;;3.70;3.40;;;22.60;56.00;;;;;;5055154;28;20441;-81
2024/03/07 07:30:41;;;;;;;5.30;4.07;;;22.60;56.00;;;;;;5055177;28;20978;-82
2024/03/07 07:33:09;;;;;;;4.33;3.93;;;22.70;56.10;;;;;;5054517;28;20492;-84
2024/03/07 07:35:36;;;;;;;4.80;4.30;;;22.60;56.10;;;;;;5055269;28;20445;-84
2024/03/07 07:38:03;;;;;;;4.80;4.00;;;22.60;56.20;;;;;;5055235;28;20521;-82
2024/03/07 07:40:32;;;;;;;3.87;3.50;;;22.50;56.20;;;;;;5054463;28;20441;-82
2024/03/07 07:43:01;;;;;;;4.00;3.70;;;22.50;56.20;;;;;;5054443;28;20495;-84
2024/03/07 07:45:28;;;;;;;5.00;3.60;;;22.50;56.30;;;;;;5054376;28;20473;-80
2024/03/07 07:47:55;;;;;;;6.83;3.90;;;22.50;56.30;;;;;;5054454;28;20867;-82
2024/03/07 07:50:24;;;;;;;4.67;4.27;;;22.50;56.40;;;;;;5066718;28;20464;-82
2024/03/07 07:52:53;;;;;;;4.20;3.80;;;22.50;56.40;;;;;;5071128;28;20433;-87
2024/03/07 07:55:21;;;;;;;6.70;3.97;;;22.50;56.50;;;;;;5074307;28;20440;-84
2024/03/07 07:57:52;;;;;;;4.87;3.83;;;22.60;56.30;;;;;;5072285;28;20958;-83
2024/03/07 08:00:22;;;;;;;3.70;3.40;;;22.60;56.50;;;;;;5071602;28;20448;-80
2024/03/07 08:02:54;;;;;;;8.43;3.73;;;22.60;56.30;;;;;;5071564;28;20555;-79
2024/03/07 08:05:22;;;;;;;6.93;4.40;;;22.70;56.30;;;;;;5064386;28;20444;-79
2024/03/07 08:07:51;;;;;;;5.20;3.90;;;22.70;56.00;;;;;;5071506;28;20527;-78
2024/03/07 08:10:20;;;;;;;6.90;4.27;;;22.70;55.90;;;;;;5071272;28;20428;-79
2024/03/07 08:12:47;;;;;;;6.63;4.63;;;22.70;55.90;;;;;;5071435;28;20531;-79
2024/03/07 08:15:16;;;;;;;7.53;3.63;;;22.70;56.00;;;;;;5071042;28;20506;-79
2024/03/07 08:17:44;;;;;;;5.37;4.30;;;22.70;55.90;;;;;;5071193;28;20797;-80
2024/03/07 08:20:12;;;;;;;6.50;3.50;;;22.70;56.40;;;;;;5070999;28;20998;-80
2024/03/07 08:22:41;;;;;;;9.80;4.47;;;22.70;55.80;;;;;;5071313;28;20428;-82
2024/03/07 08:25:10;;;;;;;7.93;4.47;;;22.70;55.80;;;;;;5071108;28;20455;-80
2024/03/07 08:27:38;;;;;;;4.53;3.80;;;22.80;55.90;;;;;;5071770;28;20811;-79
2024/03/07 08:30:07;;;;;;;5.47;4.33;;;22.70;55.80;;;;;;5072741;28;20793;-84
2024/03/07 08:32:36;;;;;;;5.37;4.10;;;22.70;55.80;;;;;;5074140;28;20436;-79
2024/03/07 08:35:06;;;;;;;6.13;4.20;;;22.70;55.80;;;;;;5073666;28;20535;-84
2024/03/07 08:37:34;;;;;;;5.93;3.67;;;22.80;55.80;;;;;;5073567;28;20527;-84
2024/03/07 08:40:02;;;;;;;5.60;3.83;;;22.80;55.80;;;;;;5073210;28;20436;-81
2024/03/07 08:42:33;;;;;;;5.77;4.30;;;22.80;55.80;;;;;;5073078;28;20524;-78
2024/03/07 08:45:00;;;;;;;5.03;4.03;;;22.80;55.80;;;;;;5073658;28;20483;-84
2024/03/07 08:47:28;;;;;;;5.40;4.27;;;22.80;55.80;;;;;;5073326;28;20803;-79
2024/03/07 08:49:55;;;;;;;6.13;3.80;;;22.80;55.80;;;;;;5072910;28;20979;-83
2024/03/07 08:52:22;;;;;;;5.70;3.40;;;22.80;55.70;;;;;;5073126;28;20524;-84
2024/03/07 08:54:48;;;;;;;6.60;4.47;;;22.80;55.70;;;;;;5072928;28;20484;-79
2024/03/07 08:57:17;;;;;;;3.90;3.50;;;22.70;55.60;;;;;;5073192;28;20433;-79
2024/03/07 08:59:45;;;;;;;4.07;3.67;;;22.80;55.80;;;;;;5073061;28;20479;-83
2024/03/07 09:02:12;;;;;;;7.43;4.37;;;22.80;55.70;;;;;;5074971;28;20438;-84
2024/03/07 09:04:40;;;;;;;4.60;3.57;;;22.70;55.70;;;;;;5079724;28;20432;-84
2024/03/07 09:07:07;;;;;;;5.77;4.40;;;22.80;55.70;;;;;;5079828;28;20436;-85
2024/03/07 09:09:34;;;;;;;5.40;4.10;;;22.70;55.60;;;;;;5079660;28;20437;-84
2024/03/07 09:12:02;;;;;;;6.40;3.60;;;22.80;55.70;;;;;;5079453;28;20436;-79
2024/03/07 09:14:29;;;;;;;4.90;4.20;;;22.70;55.60;;;;;;5079476;28;20487;-79
2024/03/07 09:17:00;;;;;;;5.13;4.40;;;22.80;55.70;;;;;;5079648;28;20440;-79
2024/03/07 09:19:28;;;;;;;6.63;4.97;;;22.80;55.60;;;;;;5079523;28;20448;-79
2024/03/07 09:21:55;;;;;;;4.50;4.03;;;22.70;55.50;;;;;;5079439;28;20475;-78
2024/03/07 09:24:22;;;;;;;4.10;3.70;;;22.70;55.60;;;;;;5079363;28;20811;-81
2024/03/07 09:26:49;;;;;;;4.50;3.73;;;22.70;55.60;;;;;;5079436;28;20444;-84
2024/03/07 09:29:18;;;;;;;5.70;3.80;;;22.70;55.60;;;;;;5079448;28;20436;-83
2024/03/07 09:31:45;;;;;;;5.70;4.20;;;22.80;55.70;;;;;;5079295;28;20927;-79
2024/03/07 09:34:14;;;;;;;5.10;4.60;;;22.80;55.70;;;;;;5079268;28;20484;-79
2024/03/07 09:36:42;;;;;;;5.00;4.20;;;22.80;55.60;;;;;;5079305;28;20530;-78
2024/03/07 09:39:09;;;;;;;4.00;3.60;;;22.90;55.60;;;;;;5079349;28;20927;-78
2024/03/07 09:41:36;;;;;;;6.23;4.20;;;22.90;55.60;;;;;;5079551;28;20447;-78
2024/03/07 09:44:04;;;;;;;6.03;4.10;;;23.00;55.70;;;;;;5081350;28;20464;-78
2024/03/07 09:46:32;;;;;;;4.57;3.87;;;22.90;55.50;;;;;;5080813;28;20442;-78
2024/03/07 09:48:59;;;;;;;5.90;4.20;;;22.90;55.50;;;;;;5079162;28;20460;-79
2024/03/07 09:51:29;;;;;;;3.90;3.50;;;23.00;55.60;;;;;;5079095;28;20923;-79
2024/03/07 09:53:59;;;;;;;4.40;4.00;;;23.00;55.50;;;;;;5079228;28;20830;-79
2024/03/07 09:56:28;;;;;;;4.80;3.90;;;23.00;55.50;;;;;;5077865;28;20438;-79
2024/03/07 09:58:58;;;;;;;4.60;3.97;;;23.00;55.50;;;;;;5078853;28;20437;-79
2024/03/07 10:11:32;;;;;;;4.03;3.57;;;23.00;55.50;;;;;;5078678;28;20404;-78
2024/03/07 10:13:59;;;;;;;4.00;3.60;;;23.00;55.60;;;;;;5076267;28;20476;-79
2024/03/07 10:16:25;;;;;;;3.83;3.43;;;23.00;55.50;;;;;;5075651;28;20424;-79
2024/03/07 10:18:52;;;;;;;3.97;3.57;;;23.00;55.50;;;;;;5075624;28;20471;-79
2024/03/07 10:21:20;;;;;;;3.80;3.50;;;23.00;55.60;;;;;;5075500;28;20780;-79
2024/03/07 10:23:47;;;;;;;4.33;3.83;;;23.00;55.60;;;;;;5075642;28;20440;-79
2024/03/07 10:26:14;;;;;;;4.17;3.77;;;23.00;55.50;;;;;;5075567;28;20919;-80
2024/03/07 10:28:43;;;;;;;4.47;3.60;;;23.00;55.50;;;;;;5075526;28;20436;-83
2024/03/07 10:31:11;;;;;;;4.00;3.57;;;23.00;55.50;;;;;;5075355;28;20451;-80
2024/03/07 10:33:38;;;;;;;4.53;4.00;;;23.00;55.60;;;;;;5075303;28;20793;-79
2024/03/07 10:36:09;;;;;;;3.97;3.47;;;23.10;55.60;;;;;;5075482;28;20490;-80
2024/03/07 10:38:36;;;;;;;4.40;4.00;;;23.00;55.60;;;;;;5075307;28;20468;-80
2024/03/07 10:41:06;;;;;;;4.10;3.40;;;23.10;55.60;;;;;;5075146;28;20439;-80
2024/03/07 10:43:37;;;;;;;4.30;3.27;;;23.10;55.60;;;;;;5075296;28;20471;-85
2024/03/07 10:46:07;;;;;;;4.67;3.50;;;23.00;55.60;;;;;;5075326;28;20494;-82
2024/03/07 10:48:40;;;;;;;4.70;3.73;;;23.10;55.70;;;;;;5075268;28;20433;-79
2024/03/07 10:51:20;;;;;;;5.67;3.87;;;23.10;55.60;;;;;;5075200;28;20433;-85
2024/03/07 10:53:58;;;;;;;3.23;2.93;;;23.10;55.50;;;;;;5075100;28;20837;-86
2024/03/07 10:56:36;;;;;;;3.77;3.40;;;23.10;55.50;;;;;;5075222;28;20436;-85
2024/03/07 10:59:17;;;;;;;5.47;3.93;;;23.20;55.50;;;;;;5075267;28;20459;-82
2024/03/07 11:01:50;;;;;;;4.40;3.40;;;23.20;55.50;;;;;;5075133;28;20428;-79
2024/03/07 11:04:18;;;;;;;5.10;4.07;;;23.20;55.50;;;;;;5074862;28;20529;-80
2024/03/07 11:14:10;;;;;;;4.70;3.70;;;23.30;55.40;;;;;;5074767;28;20418;-81
2024/03/07 11:16:38;;;;;;;3.50;3.20;;;23.40;55.80;;;;;;5074273;28;20440;-83
2024/03/07 11:19:30;;;;;;;3.77;3.47;;;23.50;55.10;;;;;;5074577;28;20534;-80
2024/03/07 11:28:42;;;;;;;5.20;4.70;;;24.00;53.60;;;;;;5074131;28;20447;-81
2024/03/07 11:31:10;;;;;;;5.20;3.90;;;24.10;53.60;;;;;;5074435;28;20447;-81
2024/03/07 11:33:40;;;;;;;4.43;4.03;;;24.10;53.90;;;;;;5074287;28;20436;-83
2024/03/07 11:36:09;;;;;;;4.67;4.20;;;24.20;54.10;;;;;;5074408;28;20491;-82
2024/03/07 11:38:37;;;;;;;4.47;3.50;;;24.20;53.90;;;;;;5074186;28;20939;-81
2024/03/07 11:41:05;;;;;;;4.30;3.80;;;24.30;53.70;;;;;;5074145;28;20440;-81
2024/03/07 11:43:32;;;;;;;4.40;3.73;;;24.40;54.00;;;;;;5073978;28;20471;-81
2024/03/07 11:46:00;;;;;;;4.10;3.50;;;24.40;53.60;;;;;;5074199;28;20440;-81
2024/03/07 11:48:27;;;;;;;4.10;3.70;;;24.50;53.40;;;;;;5073692;28;20437;-81
2024/03/07 11:50:55;;;;;;;4.40;4.00;;;24.50;53.20;;;;;;5073802;28;20441;-81
2024/03/07 11:53:23;;;;;;;3.93;3.53;;;24.50;53.40;;;;;;5074065;28;20444;-81
2024/03/07 11:55:50;;;;;;;4.00;3.40;;;24.40;54.00;;;;;;5073820;28;20484;-88
2024/03/07 11:58:21;;;;;;;4.57;3.70;;;24.40;53.20;;;;;;5073888;28;20444;-84
2024/03/07 12:00:48;;;;;;;4.30;3.70;;;24.50;53.30;;;;;;5073880;28;21049;-81
2024/03/07 12:03:17;;;;;;;3.53;3.20;;;24.40;53.30;;;;;;5073148;28;20441;-87
2024/03/07 12:05:44;;;;;;;5.80;3.70;;;24.50;53.30;;;;;;5073634;28;20436;-81
2024/03/07 12:08:12;;;;;;;4.10;3.43;;;24.50;53.30;;;;;;5072196;28;20543;-87
2024/03/07 12:10:43;;;;;;;3.93;3.53;;;24.50;53.30;;;;;;5073416;28;20444;-81
2024/03/07 12:13:11;;;;;;;4.13;3.73;;;24.50;53.30;;;;;;5073557;28;20451;-81
2024/03/07 12:15:39;;;;;;;3.60;3.20;;;24.50;53.30;;;;;;5073513;28;20488;-81
2024/03/07 12:18:09;;;;;;;3.27;2.97;;;24.50;53.30;;;;;;5073309;28;20440;-80
2024/03/07 12:20:40;;;;;;;3.60;3.30;;;24.60;53.30;;;;;;5072730;28;20461;-81
2024/03/07 12:23:08;;;;;;;3.80;3.40;;;24.60;53.10;;;;;;5071195;28;20441;-82
2024/03/07 12:25:36;;;;;;;4.80;3.50;;;24.70;53.00;;;;;;5071104;28;21000;-83
2024/03/07 12:28:11;;;;;;;4.93;4.03;;;24.60;53.30;;;;;;5071241;28;20534;-86
2024/03/07 12:30:49;;;;;;;4.37;3.83;;;24.40;54.00;;;;;;5071800;28;21207;-90
2024/03/07 12:36:45;;;;;;;3.97;3.47;;;24.20;54.80;;;;;;5067771;28;20459;-85
2024/03/07 12:39:25;;;;;;;5.23;3.40;;;24.10;55.10;;;;;;5073235;28;20440;-85
2024/03/07 12:41:54;;;;;;;4.13;3.73;;;24.30;54.50;;;;;;5073313;28;20437;-88
2024/03/07 12:44:22;;;;;;;7.00;4.03;;;24.20;54.60;;;;;;5073162;28;20468;-87
2024/03/07 12:46:53;;;;;;;4.03;3.73;;;24.20;54.70;;;;;;5069659;28;20459;-85
2024/03/07 12:49:20;;;;;;;3.97;3.60;;;24.10;54.70;;;;;;5091313;28;20468;-87
2024/03/07 12:51:47;;;;;;;5.37;3.60;;;24.10;55.00;;;;;;5085400;28;20428;-79
2024/03/07 12:54:13;;;;;;;12.23;4.73;;;24.10;54.90;;;;;;5073990;28;20436;-78
2024/03/07 12:56:40;;;;;;;6.03;4.17;;;24.20;54.50;;;;;;5072637;28;20441;-78
2024/03/07 12:59:08;;;;;;;14.43;5.27;;;24.20;54.70;;;;;;5072840;28;20437;-79
2024/03/07 13:01:39;;;;;;;8.27;4.60;;;24.20;54.80;;;;;;5072788;28;20475;-79
2024/03/07 13:04:07;;;;;;;13.33;4.30;;;24.20;54.90;;;;;;5072626;28;20531;-79
2024/03/07 13:06:35;;;;;;;9.20;5.27;;;24.10;55.10;;;;;;5072847;28;20502;-79
2024/03/07 13:09:03;;;;;;;5.53;3.80;;;24.10;55.10;;;;;;5072707;28;20438;-79
2024/03/07 13:11:32;;;;;;;10.50;4.40;;;24.10;55.30;;;;;;5072639;28;20432;-78
2024/03/07 13:13:59;;;;;;;8.73;4.20;;;24.10;55.50;;;;;;5072860;28;20467;-79
2024/03/07 13:16:27;;;;;;;9.00;4.60;;;24.10;55.60;;;;;;5072438;28;20495;-79